Time;durP1;ratioP1;P1;durP2;ratioP2;P2;SDS_P1;SDS_P2;PMS_P1;PMS_P2;Temp;Humidity;BMP_temperature;BMP_pressure;BME280_temperature;BME280_humidity;BME280_pressure;Samples;Min_cycle;Max_cycle;Signal;HPM_P1;HPM_P2
2022/03/03 00:01:45;;;;;;;38.73;21.67;;;;;;;;;;5117725;27;20562;-75
2022/03/03 00:04:36;;;;;;;;;;;;;;;;;;;;;
2022/03/03 00:07:15;;;;;;;39.20;20.33;;;;;;;;;;5118539;27;20441;-74
2022/03/03 00:09:46;;;;;;;46.17;21.87;;;;;;;;;;5118347;27;20733;-74
2022/03/03 00:12:16;;;;;;;37.27;22.53;;;;;;;;;;5118637;27;20744;-74
2022/03/03 00:20:38;;;;;;;41.63;18.57;;;;;;;;;;5114980;27;20820;-74
2022/03/03 00:23:27;;;;;;;42.23;21.60;;;;;;;;;;5118546;27;20451;-75
2022/03/03 00:26:13;;;;;;;51.70;22.17;;;;;;;;;;5117967;27;20455;-74
2022/03/03 00:28:47;;;;;;;40.50;19.17;;;;;;;;;;5118458;27;20455;-74
2022/03/03 00:31:40;;;;;;;38.73;20.47;;;;;;;;;;5117839;27;20491;-74
2022/03/03 00:37:22;;;;;;;31.90;17.40;;;;;;;;;;5035517;28;20473;-74
2022/03/03 00:39:50;;;;;;;44.13;21.50;;;;;;;;;;5118498;27;20443;-74
2022/03/03 00:42:17;;;;;;;38.87;21.13;;;;;;;;;;5119202;27;20469;-73
2022/03/03 00:44:55;;;;;;;36.37;21.57;;;;;;;;;;5119007;27;20451;-74
2022/03/03 00:50:10;;;;;;;38.33;20.67;;;;;;;;;;5115762;27;20497;-74
2022/03/03 00:53:08;;;;;;;;;;;;;;;;;;;;;
2022/03/03 00:55:53;;;;;;;40.10;22.77;;;;;;;;;;5118748;27;20763;-75
2022/03/03 00:58:20;;;;;;;38.57;21.20;;;;;;;;;;5118089;27;20894;-73
2022/03/03 01:00:57;;;;;;;41.60;21.60;;;;;;;;;;5116914;27;20480;-74
2022/03/03 01:03:47;;;;;;;42.00;23.90;;;;;;;;;;5116679;27;20438;-74
2022/03/03 01:08:59;;;;;;;44.13;24.30;;;;;;;;;;5115653;27;20458;-73
2022/03/03 01:11:29;;;;;;;43.67;25.03;;;;;;;;;;5117168;27;20455;-74
2022/03/03 01:13:58;;;;;;;43.93;23.97;;;;;;;;;;5117567;27;20901;-73
2022/03/03 01:16:25;;;;;;;46.47;25.70;;;;;;;;;;5117132;27;20585;-73
2022/03/03 01:18:52;;;;;;;49.00;27.40;;;;;;;;;;5116764;27;20910;-74
2022/03/03 01:21:20;;;;;;;57.20;28.30;;;;;;;;;;5117991;27;20473;-73
2022/03/03 01:23:48;;;;;;;45.17;25.17;;;;;;;;;;5117552;27;20503;-73
2022/03/03 01:26:15;;;;;;;43.67;25.80;;;;;;;;;;5116858;27;20529;-74
2022/03/03 01:28:43;;;;;;;59.83;27.73;;;;;;;;;;5116700;27;20543;-74
2022/03/03 01:31:10;;;;;;;49.07;24.70;;;;;;;;;;5116536;27;20466;-74
2022/03/03 01:33:37;;;;;;;53.37;27.17;;;;;;;;;;5116624;27;20646;-74
2022/03/03 01:36:05;;;;;;;62.83;28.50;;;;;;;;;;5117000;27;20491;-74
2022/03/03 01:38:32;;;;;;;48.30;26.83;;;;;;;;;;5119989;27;20846;-74
2022/03/03 01:40:59;;;;;;;42.17;24.00;;;;;;;;;;5119821;27;20466;-74
2022/03/03 01:43:26;;;;;;;57.40;26.60;;;;;;;;;;5119997;27;20766;-74
2022/03/03 01:45:54;;;;;;;49.70;25.93;;;;;;;;;;5120151;27;20457;-74
2022/03/03 01:48:21;;;;;;;53.03;25.00;;;;;;;;;;5120376;27;20531;-74
2022/03/03 01:50:49;;;;;;;48.87;28.37;;;;;;;;;;5121312;27;20499;-73
2022/03/03 01:53:16;;;;;;;52.70;24.90;;;;;;;;;;5120614;27;20872;-74
2022/03/03 01:55:44;;;;;;;49.43;24.57;;;;;;;;;;5119035;27;20788;-73
2022/03/03 01:58:11;;;;;;;55.13;26.40;;;;;;;;;;5120562;27;20473;-74
2022/03/03 02:00:41;;;;;;;48.57;25.27;;;;;;;;;;5119662;27;20465;-74
2022/03/03 02:03:10;;;;;;;53.47;25.80;;;;;;;;;;5119827;27;20507;-74
2022/03/03 02:05:37;;;;;;;55.43;26.47;;;;;;;;;;5119709;27;20458;-74
2022/03/03 02:08:04;;;;;;;49.90;23.17;;;;;;;;;;5119355;27;20469;-74
2022/03/03 02:10:32;;;;;;;49.20;27.50;;;;;;;;;;5120281;27;20446;-74
2022/03/03 02:12:59;;;;;;;46.60;23.37;;;;;;;;;;5119717;27;20537;-74
2022/03/03 02:15:26;;;;;;;48.57;24.37;;;;;;;;;;5120657;27;20489;-74
2022/03/03 02:17:53;;;;;;;49.30;24.60;;;;;;;;;;5120069;27;20517;-73
2022/03/03 02:20:21;;;;;;;55.87;24.87;;;;;;;;;;5119513;27;20446;-73
2022/03/03 02:22:50;;;;;;;46.17;25.10;;;;;;;;;;5119863;27;20843;-74
2022/03/03 02:25:19;;;;;;;42.07;26.53;;;;;;;;;;5119876;27;20454;-74
2022/03/03 02:27:46;;;;;;;35.40;21.47;;;;;;;;;;5119613;27;20466;-74
2022/03/03 02:30:14;;;;;;;44.80;24.40;;;;;;;;;;5118519;27;20842;-74
2022/03/03 02:32:42;;;;;;;46.33;23.87;;;;;;;;;;5118152;27;20508;-74
2022/03/03 02:35:09;;;;;;;38.70;21.53;;;;;;;;;;5117148;27;20800;-74
2022/03/03 02:37:38;;;;;;;51.60;26.27;;;;;;;;;;5118804;27;20496;-74
2022/03/03 02:40:06;;;;;;;47.73;24.63;;;;;;;;;;5119390;27;20451;-73
2022/03/03 02:42:33;;;;;;;51.77;24.27;;;;;;;;;;5120958;27;20460;-74
2022/03/03 02:45:01;;;;;;;41.57;22.90;;;;;;;;;;5119503;27;20441;-74
2022/03/03 02:47:28;;;;;;;44.83;23.40;;;;;;;;;;5119322;27;20859;-74
2022/03/03 02:49:55;;;;;;;41.60;20.77;;;;;;;;;;5118594;27;20485;-74
2022/03/03 02:52:23;;;;;;;43.17;21.90;;;;;;;;;;5118813;27;20695;-74
2022/03/03 02:54:51;;;;;;;35.70;17.30;;;;;;;;;;5118693;27;20441;-73
2022/03/03 03:00:04;;;;;;;42.33;23.33;;;;;;;;;;5119630;27;20500;-74
2022/03/03 03:02:33;;;;;;;42.23;21.23;;;;;;;;;;5119039;27;20455;-74
2022/03/03 03:05:00;;;;;;;41.37;20.63;;;;;;;;;;5119778;27;20451;-74
2022/03/03 03:07:27;;;;;;;47.23;21.60;;;;;;;;;;5119229;27;20450;-73
2022/03/03 03:09:55;;;;;;;49.77;22.50;;;;;;;;;;5118929;27;20719;-74
2022/03/03 03:12:25;;;;;;;37.00;20.47;;;;;;;;;;5119283;27;20527;-74
2022/03/03 03:14:52;;;;;;;41.63;21.90;;;;;;;;;;5119109;27;20454;-74
2022/03/03 03:17:22;;;;;;;48.00;23.90;;;;;;;;;;5119395;27;20873;-74
2022/03/03 03:19:49;;;;;;;48.87;25.20;;;;;;;;;;5118509;27;20455;-74
2022/03/03 03:22:16;;;;;;;40.50;21.77;;;;;;;;;;5118891;27;20466;-74
2022/03/03 03:24:43;;;;;;;44.00;21.93;;;;;;;;;;5118687;27;20725;-74
2022/03/03 03:27:11;;;;;;;40.50;20.43;;;;;;;;;;5118209;27;21492;-74
2022/03/03 03:29:38;;;;;;;45.03;20.80;;;;;;;;;;5118561;27;20450;-74
2022/03/03 03:32:05;;;;;;;51.33;22.73;;;;;;;;;;5118598;27;20442;-74
2022/03/03 03:34:32;;;;;;;43.27;21.17;;;;;;;;;;5118470;27;20468;-74
2022/03/03 03:36:59;;;;;;;49.43;24.47;;;;;;;;;;5118362;27;20451;-74
2022/03/03 03:39:26;;;;;;;42.23;20.80;;;;;;;;;;5118308;27;20704;-74
2022/03/03 03:41:53;;;;;;;54.43;22.40;;;;;;;;;;5118419;27;20450;-74
2022/03/03 03:44:21;;;;;;;43.30;21.07;;;;;;;;;;5118195;27;20446;-74
2022/03/03 03:46:50;;;;;;;43.63;23.37;;;;;;;;;;5117948;27;20835;-74
2022/03/03 03:49:17;;;;;;;46.97;23.40;;;;;;;;;;5118163;27;20454;-74
2022/03/03 03:51:44;;;;;;;48.47;20.90;;;;;;;;;;5118402;27;20446;-73
2022/03/03 03:54:11;;;;;;;46.10;22.30;;;;;;;;;;5117737;27;20786;-74
2022/03/03 03:56:38;;;;;;;42.03;19.70;;;;;;;;;;5118108;27;20533;-73
2022/03/03 03:59:05;;;;;;;46.90;21.67;;;;;;;;;;5116931;27;20446;-74
2022/03/03 04:01:33;;;;;;;44.97;20.73;;;;;;;;;;5118258;27;20445;-74
2022/03/03 04:04:00;;;;;;;51.20;19.47;;;;;;;;;;5117809;27;20462;-74
2022/03/03 04:06:27;;;;;;;44.97;19.23;;;;;;;;;;5117770;27;20483;-74
2022/03/03 04:08:54;;;;;;;42.80;20.70;;;;;;;;;;5117671;27;20447;-74
2022/03/03 04:11:21;;;;;;;45.33;20.27;;;;;;;;;;5117479;27;20455;-73
2022/03/03 04:13:48;;;;;;;38.83;18.50;;;;;;;;;;5118850;27;20462;-74
2022/03/03 04:16:15;;;;;;;36.50;20.03;;;;;;;;;;5116796;27;20465;-75
2022/03/03 04:18:43;;;;;;;30.87;14.50;;;;;;;;;;5115661;27;20527;-73
2022/03/03 04:21:11;;;;;;;43.73;20.13;;;;;;;;;;5116405;27;20586;-74
2022/03/03 04:23:38;;;;;;;42.00;15.00;;;;;;;;;;5117630;27;20482;-73
2022/03/03 04:26:05;;;;;;;39.53;17.47;;;;;;;;;;5118686;27;20486;-73
2022/03/03 04:28:32;;;;;;;38.30;18.93;;;;;;;;;;5117478;27;20452;-74
2022/03/03 04:30:59;;;;;;;45.70;20.03;;;;;;;;;;5117912;27;20577;-73
2022/03/03 04:33:26;;;;;;;40.37;20.70;;;;;;;;;;5117643;27;20451;-74
2022/03/03 04:35:57;;;;;;;36.77;19.93;;;;;;;;;;5116234;27;20470;-74
2022/03/03 04:38:24;;;;;;;38.47;19.00;;;;;;;;;;5116923;27;20704;-74
2022/03/03 04:40:51;;;;;;;40.57;19.73;;;;;;;;;;5117766;27;20514;-74
2022/03/03 04:43:18;;;;;;;42.50;20.50;;;;;;;;;;5118105;27;20540;-74
2022/03/03 04:45:45;;;;;;;34.90;19.30;;;;;;;;;;5118326;27;20759;-74
2022/03/03 04:48:12;;;;;;;41.10;17.20;;;;;;;;;;5117709;27;20458;-74
2022/03/03 04:50:39;;;;;;;33.20;18.00;;;;;;;;;;5118131;27;20461;-74
2022/03/03 04:53:07;;;;;;;43.77;19.67;;;;;;;;;;5117437;27;20545;-74
2022/03/03 04:55:34;;;;;;;36.77;19.17;;;;;;;;;;5117205;27;20721;-73
2022/03/03 04:58:02;;;;;;;38.43;19.70;;;;;;;;;;5115277;27;20497;-73
2022/03/03 05:00:29;;;;;;;38.50;20.47;;;;;;;;;;5117221;27;20545;-74
2022/03/03 05:02:56;;;;;;;40.50;20.20;;;;;;;;;;5117426;27;20881;-74
2022/03/03 05:05:23;;;;;;;46.17;21.70;;;;;;;;;;5117777;27;20483;-74
2022/03/03 05:07:50;;;;;;;45.73;21.40;;;;;;;;;;5116926;27;20446;-74
2022/03/03 05:10:17;;;;;;;48.73;21.40;;;;;;;;;;5116891;27;20454;-73
2022/03/03 05:12:44;;;;;;;45.67;22.87;;;;;;;;;;5116307;27;20883;-74
2022/03/03 05:15:11;;;;;;;49.73;21.20;;;;;;;;;;5115186;27;20451;-73
2022/03/03 05:17:38;;;;;;;34.20;16.80;;;;;;;;;;5116234;27;20457;-74
2022/03/03 05:20:06;;;;;;;39.83;15.80;;;;;;;;;;5117429;27;20447;-74
2022/03/03 05:22:33;;;;;;;34.37;19.87;;;;;;;;;;5116821;27;20864;-73
2022/03/03 05:25:01;;;;;;;38.20;20.00;;;;;;;;;;5116530;27;20726;-73
2022/03/03 05:27:29;;;;;;;29.30;17.27;;;;;;;;;;5115826;27;20482;-73
2022/03/03 05:29:56;;;;;;;38.83;19.87;;;;;;;;;;5117010;27;20561;-73
2022/03/03 05:32:23;;;;;;;40.40;17.73;;;;;;;;;;5116000;27;20450;-73
2022/03/03 05:34:50;;;;;;;41.07;20.27;;;;;;;;;;5115780;27;20537;-74
2022/03/03 05:37:24;;;;;;;51.50;21.97;;;;;;;;;;5116374;27;20462;-73
2022/03/03 05:39:51;;;;;;;33.53;17.83;;;;;;;;;;5116614;27;20815;-74
2022/03/03 05:42:20;;;;;;;43.03;19.20;;;;;;;;;;5116659;28;20504;-74
2022/03/03 05:44:48;;;;;;;42.80;22.70;;;;;;;;;;5116418;28;20549;-74
2022/03/03 05:47:16;;;;;;;46.50;22.50;;;;;;;;;;5115912;28;20482;-74
2022/03/03 05:49:44;;;;;;;37.70;17.53;;;;;;;;;;5115315;28;20460;-73
2022/03/03 05:52:12;;;;;;;36.00;20.17;;;;;;;;;;5116360;27;20477;-74
2022/03/03 05:54:39;;;;;;;36.97;20.00;;;;;;;;;;5115797;27;20474;-74
2022/03/03 05:57:08;;;;;;;37.60;18.93;;;;;;;;;;5115121;27;20472;-73
2022/03/03 05:59:35;;;;;;;39.67;17.27;;;;;;;;;;5115495;27;20480;-74
2022/03/03 06:02:09;;;;;;;37.87;17.70;;;;;;;;;;5115094;27;20493;-74
2022/03/03 06:04:42;;;;;;;38.97;18.67;;;;;;;;;;5115609;27;20616;-75
2022/03/03 06:07:10;;;;;;;33.87;17.30;;;;;;;;;;5125679;27;20503;-73
2022/03/03 06:09:37;;;;;;;45.47;21.57;;;;;;;;;;5134241;27;20458;-74
2022/03/03 06:12:06;;;;;;;36.70;16.17;;;;;;;;;;5134835;27;20563;-74
2022/03/03 06:14:52;;;;;;;38.97;17.73;;;;;;;;;;5132388;27;20932;-74
2022/03/03 06:17:36;;;;;;;35.13;16.70;;;;;;;;;;5131001;27;20470;-72
2022/03/03 06:20:04;;;;;;;46.17;21.13;;;;;;;;;;5103513;28;20451;-74
2022/03/03 06:22:31;;;;;;;39.17;18.57;;;;;;;;;;5115095;28;20486;-75
2022/03/03 06:24:58;;;;;;;52.33;22.00;;;;;;;;;;5117713;28;20546;-74
2022/03/03 06:27:26;;;;;;;34.20;18.73;;;;;;;;;;5116639;28;20553;-74
2022/03/03 06:29:57;;;;;;;36.90;16.70;;;;;;;;;;5113971;27;20874;-74
2022/03/03 06:32:24;;;;;;;45.63;21.20;;;;;;;;;;5118259;27;20541;-74
2022/03/03 06:34:54;;;;;;;31.23;16.67;;;;;;;;;;5118078;27;20482;-74
2022/03/03 06:37:22;;;;;;;46.43;22.83;;;;;;;;;;5115051;27;20927;-74
2022/03/03 06:39:51;;;;;;;34.57;17.77;;;;;;;;;;5115628;27;20463;-74
2022/03/03 06:42:22;;;;;;;42.03;21.47;;;;;;;;;;5114592;27;20450;-74
2022/03/03 06:44:49;;;;;;;38.97;18.40;;;;;;;;;;5114302;27;20454;-74
2022/03/03 06:47:16;;;;;;;53.33;22.53;;;;;;;;;;5116628;27;20490;-74
2022/03/03 06:49:44;;;;;;;41.83;18.67;;;;;;;;;;5117417;27;20509;-74
2022/03/03 06:52:14;;;;;;;44.87;18.73;;;;;;;;;;5116666;27;20466;-74
2022/03/03 06:54:43;;;;;;;44.13;21.70;;;;;;;;;;5115492;27;20684;-73
2022/03/03 06:57:11;;;;;;;37.57;16.77;;;;;;;;;;5114681;27;20469;-73
2022/03/03 06:59:39;;;;;;;48.17;17.87;;;;;;;;;;5115090;27;20883;-74
2022/03/03 07:02:07;;;;;;;44.67;18.20;;;;;;;;;;5112845;27;20738;-74
2022/03/03 07:04:34;;;;;;;34.60;18.67;;;;;;;;;;5113395;27;20526;-74
2022/03/03 07:07:05;;;;;;;32.90;17.80;;;;;;;;;;5114781;27;20486;-74
2022/03/03 07:09:32;;;;;;;39.93;18.97;;;;;;;;;;5115183;27;20851;-74
2022/03/03 07:11:59;;;;;;;43.33;18.50;;;;;;;;;;5115090;27;20821;-74
2022/03/03 07:14:26;;;;;;;34.43;15.53;;;;;;;;;;5115064;27;20451;-74
2022/03/03 07:17:00;;;;;;;50.07;20.53;;;;;;;;;;5115525;27;20537;-73
2022/03/03 07:19:39;;;;;;;48.63;19.07;;;;;;;;;;5116445;27;20439;-74
2022/03/03 07:22:12;;;;;;;30.00;14.23;;;;;;;;;;5115811;27;20480;-74
2022/03/03 07:24:43;;;;;;;32.60;15.13;;;;;;;;;;5116664;27;20461;-74
2022/03/03 07:27:23;;;;;;;32.83;14.67;;;;;;;;;;5116942;27;20498;-74
2022/03/03 07:29:55;;;;;;;48.30;16.67;;;;;;;;;;5116824;27;20542;-74
2022/03/03 07:32:25;;;;;;;21.77;10.90;;;;;;;;;;5116263;27;20439;-74
2022/03/03 07:34:59;;;;;;;27.83;13.93;;;;;;;;;;5115821;27;20785;-74
2022/03/03 07:37:47;;;;;;;34.03;15.27;;;;;;;;;;5114414;28;20462;-74
2022/03/03 07:40:18;;;;;;;36.03;14.60;;;;;;;;;;5114738;28;20459;-74
2022/03/03 07:42:47;;;;;;;25.10;13.90;;;;;;;;;;5116369;27;20467;-74
2022/03/03 07:45:15;;;;;;;30.43;13.70;;;;;;;;;;5109690;28;20466;-74
2022/03/03 07:47:42;;;;;;;30.63;14.10;;;;;;;;;;5113231;27;20767;-74
2022/03/03 07:50:12;;;;;;;27.83;13.63;;;;;;;;;;5095830;28;20448;-73
2022/03/03 07:52:39;;;;;;;28.30;13.97;;;;;;;;;;5096545;28;20518;-73
2022/03/03 07:55:07;;;;;;;26.90;13.13;;;;;;;;;;5096111;28;20498;-74
2022/03/03 07:57:41;;;;;;;34.00;13.00;;;;;;;;;;5112544;27;20571;-74
2022/03/03 08:00:13;;;;;;;34.47;15.70;;;;;;;;;;5100463;28;20457;-73
2022/03/03 08:02:41;;;;;;;32.63;14.93;;;;;;;;;;5104365;28;20480;-74
2022/03/03 08:05:11;;;;;;;30.53;12.30;;;;;;;;;;5114854;28;20432;-74
2022/03/03 08:07:44;;;;;;;26.10;13.17;;;;;;;;;;5114999;28;20510;-74
2022/03/03 08:10:12;;;;;;;27.97;14.43;;;;;;;;;;5115749;28;20439;-74
2022/03/03 08:12:47;;;;;;;30.30;14.30;;;;;;;;;;5116246;28;20455;-74
2022/03/03 08:15:14;;;;;;;28.10;14.27;;;;;;;;;;5115576;27;20551;-73
2022/03/03 08:17:41;;;;;;;26.97;14.07;;;;;;;;;;5117048;27;20459;-74
2022/03/03 08:20:09;;;;;;;33.00;15.43;;;;;;;;;;5115775;27;20777;-74
2022/03/03 08:22:38;;;;;;;28.37;13.33;;;;;;;;;;5115865;27;20472;-73
2022/03/03 08:25:08;;;;;;;27.70;13.57;;;;;;;;;;5115426;27;20452;-74
2022/03/03 08:27:37;;;;;;;23.63;13.30;;;;;;;;;;5117570;27;20455;-73
2022/03/03 08:30:05;;;;;;;24.03;11.50;;;;;;;;;;5116178;27;20455;-74
2022/03/03 08:32:35;;;;;;;20.70;11.27;;;;;;;;;;5115600;27;20466;-74
2022/03/03 08:35:08;;;;;;;22.90;10.67;;;;;;;;;;5115249;27;20442;-73
2022/03/03 08:37:36;;;;;;;22.53;10.43;;;;;;;;;;5115903;27;20455;-74
2022/03/03 08:40:05;;;;;;;23.10;10.93;;;;;;;;;;5115086;27;20453;-73
2022/03/03 08:42:35;;;;;;;30.53;13.80;;;;;;;;;;5115641;27;20729;-74
2022/03/03 08:45:03;;;;;;;26.20;12.73;;;;;;;;;;5114932;27;21057;-73
2022/03/03 08:47:44;;;;;;;33.47;13.53;;;;;;;;;;5115007;27;20489;-72
2022/03/03 08:50:27;;;;;;;26.77;10.30;;;;;;;;;;5115841;27;20521;-73
2022/03/03 08:52:55;;;;;;;20.73;9.97;;;;;;;;;;5116163;27;20466;-75
2022/03/03 08:55:28;;;;;;;19.40;10.57;;;;;;;;;;5116887;27;20514;-73
2022/03/03 08:57:59;;;;;;;22.37;11.13;;;;;;;;;;5096457;28;20470;-76
2022/03/03 09:00:30;;;;;;;26.80;11.30;;;;;;;;;;5115252;27;20447;-74
2022/03/03 09:03:00;;;;;;;23.70;10.63;;;;;;;;;;5114588;27;20447;-74
2022/03/03 09:05:30;;;;;;;24.07;12.30;;;;;;;;;;5115434;27;20550;-73
2022/03/03 09:11:04;;;;;;;26.03;11.80;;;;;;;;;;5094407;28;20475;-73
2022/03/03 09:13:32;;;;;;;18.83;10.87;;;;;;;;;;5095684;28;21032;-74
2022/03/03 09:15:59;;;;;;;25.20;12.20;;;;;;;;;;5097740;28;20499;-75
2022/03/03 09:18:34;;;;;;;18.83;9.63;;;;;;;;;;5120868;27;20510;-74
2022/03/03 09:21:02;;;;;;;13.60;8.53;;;;;;;;;;5124080;27;20449;-73
2022/03/03 09:23:35;;;;;;;18.93;9.27;;;;;;;;;;5116118;27;20454;-75
2022/03/03 09:26:05;;;;;;;20.00;8.33;;;;;;;;;;5122156;27;20477;-74
2022/03/03 09:28:32;;;;;;;24.27;12.17;;;;;;;;;;5121132;28;20447;-75
2022/03/03 09:31:01;;;;;;;19.40;10.87;;;;;;;;;;5114832;27;20942;-74
2022/03/03 09:33:29;;;;;;;17.90;10.70;;;;;;;;;;5117143;27;20459;-74
2022/03/03 09:35:57;;;;;;;21.03;11.53;;;;;;;;;;5118493;27;20455;-74
2022/03/03 09:38:27;;;;;;;20.50;10.60;;;;;;;;;;5115104;27;20871;-74
2022/03/03 09:40:54;;;;;;;20.07;9.60;;;;;;;;;;5115420;27;20459;-74
2022/03/03 09:43:22;;;;;;;20.23;11.00;;;;;;;;;;5114798;27;20937;-73
2022/03/03 09:45:55;;;;;;;19.40;10.53;;;;;;;;;;5122858;27;20481;-76
2022/03/03 09:48:25;;;;;;;20.83;8.63;;;;;;;;;;5135471;27;20498;-74
2022/03/03 09:51:00;;;;;;;20.93;9.70;;;;;;;;;;5129923;27;20754;-74
2022/03/03 09:53:32;;;;;;;13.87;7.70;;;;;;;;;;5111230;27;20854;-74
2022/03/03 09:56:00;;;;;;;18.17;8.73;;;;;;;;;;5114842;27;21092;-74
2022/03/03 09:58:30;;;;;;;13.77;7.30;;;;;;;;;;5116686;27;20533;-74
2022/03/03 10:01:17;;;;;;;16.03;8.20;;;;;;;;;;5118266;27;20450;-74
2022/03/03 10:03:48;;;;;;;19.13;8.73;;;;;;;;;;5117238;27;20434;-74
2022/03/03 10:06:25;;;;;;;17.70;8.10;;;;;;;;;;5118593;27;20490;-75
2022/03/03 10:08:52;;;;;;;22.93;12.73;;;;;;;;;;5134285;27;20464;-75
2022/03/03 10:11:22;;;;;;;17.40;8.67;;;;;;;;;;5137400;27;20577;-74
2022/03/03 10:13:52;;;;;;;13.23;7.67;;;;;;;;;;5122701;27;20455;-74
2022/03/03 10:16:26;;;;;;;14.77;7.50;;;;;;;;;;5117653;27;20462;-74
2022/03/03 10:19:05;;;;;;;12.70;7.33;;;;;;;;;;5113953;27;20461;-74
2022/03/03 10:21:40;;;;;;;13.80;7.53;;;;;;;;;;5115558;27;20507;-74
2022/03/03 10:24:27;;;;;;;;;;;;;;;;;;;;;
2022/03/03 10:26:58;;;;;;;11.80;7.37;;;;;;;;;;5116224;27;20478;-74
2022/03/03 10:29:28;;;;;;;11.80;7.00;;;;;;;;;;5118305;27;20449;-73
2022/03/03 10:31:57;;;;;;;14.30;6.57;;;;;;;;;;5096873;28;20448;-76
2022/03/03 10:34:37;;;;;;;;;;;;;;;;;;;;;
2022/03/03 10:37:16;;;;;;;10.80;6.20;;;;;;;;;;5119568;27;20968;-75
2022/03/03 10:39:44;;;;;;;15.00;6.03;;;;;;;;;;5110115;27;20438;-76
2022/03/03 10:42:24;;;;;;;13.50;6.10;;;;;;;;;;5117388;27;20463;-74
2022/03/03 10:45:09;;;;;;;11.37;6.23;;;;;;;;;;5118012;27;20451;-74
2022/03/03 10:47:55;;;;;;;11.50;7.03;;;;;;;;;;5116449;27;20553;-75
2022/03/03 10:50:47;;;;;;;9.33;5.57;;;;;;;;;;5112906;27;20522;-74
2022/03/03 10:53:19;;;;;;;13.00;6.53;;;;;;;;;;5115929;28;20435;-75
2022/03/03 10:56:25;;;;;;;10.07;5.50;;;;;;;;;;5118854;27;20568;-75
2022/03/03 10:59:06;;;;;;;10.13;5.27;;;;;;;;;;5117898;27;20489;-74
2022/03/03 11:01:58;;;;;;;11.90;6.33;;;;;;;;;;5119113;27;20822;-75
2022/03/03 11:04:31;;;;;;;12.67;5.40;;;;;;;;;;5099981;28;20527;-74
2022/03/03 11:07:18;;;;;;;11.93;6.47;;;;;;;;;;5118298;27;20486;-74
2022/03/03 11:10:13;;;;;;;8.07;4.53;;;;;;;;;;5116931;27;20458;-73
2022/03/03 11:12:45;;;;;;;9.90;5.90;;;;;;;;;;5098764;28;20439;-74
2022/03/03 11:15:12;;;;;;;8.23;5.20;;;;;;;;;;5097161;28;20475;-73
2022/03/03 11:17:48;;;;;;;7.00;4.50;;;;;;;;;;5113851;28;20451;-74
2022/03/03 11:20:23;;;;;;;9.40;5.73;;;;;;;;;;5116476;28;20481;-75
2022/03/03 11:26:04;;;;;;;10.73;5.17;;;;;;;;;;5117005;28;20545;-74
2022/03/03 11:28:39;;;;;;;11.67;5.33;;;;;;;;;;5116649;28;20457;-74
2022/03/03 11:31:31;;;;;;;10.00;6.07;;;;;;;;;;5105077;28;20457;-74
2022/03/03 11:34:30;;;;;;;9.17;5.80;;;;;;;;;;5116736;28;20490;-74
2022/03/03 11:37:02;;;;;;;9.13;5.63;;;;;;;;;;5105744;28;20462;-77
2022/03/03 11:39:45;;;;;;;26.33;5.07;;;;;;;;;;5113972;28;20450;-74
2022/03/03 11:42:36;;;;;;;11.10;5.63;;;;;;;;;;5111996;28;20443;-74
2022/03/03 11:45:46;;;;;;;9.20;5.37;;;;;;;;;;5111313;27;20450;-74
2022/03/03 11:48:15;;;;;;;12.40;5.20;;;;;;;;;;5012825;28;20811;-74
2022/03/03 11:50:53;;;;;;;7.30;4.33;;;;;;;;;;5012840;28;20558;-73
2022/03/03 11:53:27;;;;;;;7.73;4.03;;;;;;;;;;5014327;28;20516;-74
2022/03/03 11:56:10;;;;;;;6.20;3.70;;;;;;;;;;5014598;28;20451;-73
2022/03/03 11:58:47;;;;;;;7.40;3.77;;;;;;;;;;5027551;27;20542;-73
2022/03/03 12:01:27;;;;;;;8.80;4.53;;;;;;;;;;5117125;27;20438;-73
2022/03/03 12:04:02;;;;;;;9.40;4.60;;;;;;;;;;5114925;27;20862;-73
2022/03/03 12:09:30;;;;;;;8.10;3.90;;;;;;;;;;5115268;27;20474;-71
2022/03/03 12:12:19;;;;;;;8.50;4.43;;;;;;;;;;5119093;27;20447;-71
2022/03/03 12:15:04;;;;;;;6.83;3.90;;;;;;;;;;5115909;27;20459;-71
2022/03/03 12:17:50;;;;;;;32.50;20.67;;;;;;;;;;5116379;27;20482;-71
2022/03/03 12:20:32;;;;;;;6.00;3.57;;;;;;;;;;5102295;28;20469;-72
2022/03/03 12:23:16;;;;;;;7.97;3.60;;;;;;;;;;5116477;27;20890;-72
2022/03/03 12:26:05;;;;;;;9.47;3.83;;;;;;;;;;5117177;27;20474;-71
2022/03/03 12:28:45;;;;;;;9.23;4.30;;;;;;;;;;5116207;27;20455;-72
2022/03/03 12:31:31;;;;;;;8.10;4.00;;;;;;;;;;5115551;27;20528;-72
2022/03/03 12:34:01;;;;;;;13.53;7.70;;;;;;;;;;5115116;27;20450;-72
2022/03/03 12:36:44;;;;;;;6.60;3.90;;;;;;;;;;5115313;27;20515;-72
2022/03/03 12:39:18;;;;;;;7.30;4.07;;;;;;;;;;5098081;27;20445;-73
2022/03/03 12:41:49;;;;;;;7.60;4.20;;;;;;;;;;5115393;27;20855;-73
2022/03/03 12:44:19;;;;;;;9.57;4.80;;;;;;;;;;5116869;27;20534;-73
2022/03/03 12:50:00;;;;;;;8.50;4.90;;;;;;;;;;5116019;27;20625;-73
2022/03/03 12:52:35;;;;;;;8.33;3.70;;;;;;;;;;5114812;27;20447;-74
2022/03/03 12:55:05;;;;;;;9.10;5.40;;;;;;;;;;5117771;27;20466;-74
2022/03/03 12:57:36;;;;;;;8.90;4.90;;;;;;;;;;5098878;27;20496;-74
2022/03/03 13:00:06;;;;;;;8.43;4.30;;;;;;;;;;5095479;28;20455;-74
2022/03/03 13:02:51;;;;;;;8.13;4.70;;;;;;;;;;5113458;27;20497;-74
2022/03/03 13:05:35;;;;;;;6.50;4.13;;;;;;;;;;5116884;27;20457;-74
2022/03/03 13:08:09;;;;;;;9.10;4.50;;;;;;;;;;5116174;27;20558;-72
2022/03/03 13:10:39;;;;;;;11.90;5.00;;;;;;;;;;5110952;27;20449;-73
2022/03/03 13:13:12;;;;;;;9.43;4.87;;;;;;;;;;5114732;27;20882;-72
2022/03/03 13:15:49;;;;;;;7.43;4.60;;;;;;;;;;5112456;28;20439;-73
2022/03/03 13:18:18;;;;;;;10.87;5.37;;;;;;;;;;5113561;27;20621;-75
2022/03/03 13:20:46;;;;;;;9.10;4.73;;;;;;;;;;5114368;28;20443;-73
2022/03/03 13:23:16;;;;;;;8.70;4.40;;;;;;;;;;5111465;28;20475;-74
2022/03/03 13:25:45;;;;;;;11.97;5.77;;;;;;;;;;5114410;27;20458;-74
2022/03/03 13:28:23;;;;;;;10.27;4.93;;;;;;;;;;5111480;28;20800;-73
2022/03/03 13:30:51;;;;;;;9.60;5.00;;;;;;;;;;5112751;28;20437;-73
2022/03/03 13:33:21;;;;;;;14.83;5.10;;;;;;;;;;5118178;27;20516;-73
2022/03/03 13:35:49;;;;;;;9.30;5.10;;;;;;;;;;5117919;27;20443;-73
2022/03/03 13:38:17;;;;;;;9.47;6.60;;;;;;;;;;5115463;28;20447;-73
2022/03/03 13:40:56;;;;;;;9.77;5.10;;;;;;;;;;5118283;28;20519;-74
2022/03/03 13:43:26;;;;;;;9.20;5.00;;;;;;;;;;5115824;27;20450;-73
2022/03/03 13:45:56;;;;;;;12.40;4.80;;;;;;;;;;5115809;27;20450;-74
2022/03/03 13:48:33;;;;;;;9.47;4.97;;;;;;;;;;5116922;27;20497;-74
2022/03/03 13:51:03;;;;;;;11.87;5.70;;;;;;;;;;5115578;27;20443;-72
2022/03/03 13:53:32;;;;;;;8.77;5.67;;;;;;;;;;5113959;28;20445;-74
2022/03/03 13:56:14;;;;;;;14.20;5.60;;;;;;;;;;5118405;27;20800;-73
2022/03/03 13:58:42;;;;;;;10.93;5.67;;;;;;;;;;5115686;28;20506;-73
2022/03/03 14:01:40;;;;;;;;;;;;;;;;;;;;;
2022/03/03 14:04:48;;;;;;;14.90;7.80;;;;;;;;;;5115771;27;20480;-74
2022/03/03 14:07:30;;;;;;;9.77;5.60;;;;;;;;;;5115820;27;20936;-74
2022/03/03 14:10:02;;;;;;;10.80;5.53;;;;;;;;;;5117681;27;20542;-72
2022/03/03 14:12:29;;;;;;;9.70;4.83;;;;;;;;;;5116538;27;20450;-73
2022/03/03 14:14:57;;;;;;;9.60;6.13;;;;;;;;;;5112630;27;20523;-74
2022/03/03 14:17:38;;;;;;;14.70;8.10;;;;;;;;;;5113223;27;20550;-74
2022/03/03 14:20:06;;;;;;;10.70;5.20;;;;;;;;;;5117286;27;20462;-74
2022/03/03 14:22:36;;;;;;;9.57;5.37;;;;;;;;;;5116136;27;20443;-73
2022/03/03 14:25:05;;;;;;;8.80;5.20;;;;;;;;;;5117718;27;20476;-72
2022/03/03 14:27:41;;;;;;;13.23;5.50;;;;;;;;;;5117499;27;20493;-73
2022/03/03 14:30:09;;;;;;;9.07;5.23;;;;;;;;;;5101645;28;20556;-73
2022/03/03 14:32:41;;;;;;;12.37;7.17;;;;;;;;;;5109993;27;20459;-72
2022/03/03 14:35:10;;;;;;;12.40;5.60;;;;;;;;;;5114509;27;20466;-72
2022/03/03 14:37:41;;;;;;;11.03;6.30;;;;;;;;;;5116851;27;20600;-73
2022/03/03 14:40:12;;;;;;;9.90;6.00;;;;;;;;;;5113847;27;20910;-73
2022/03/03 14:42:43;;;;;;;12.60;6.77;;;;;;;;;;5115731;27;20458;-74
2022/03/03 14:45:18;;;;;;;11.40;5.87;;;;;;;;;;5107580;27;20550;-73
2022/03/03 14:48:03;;;;;;;9.67;5.57;;;;;;;;;;5116801;27;20538;-74
2022/03/03 14:50:40;;;;;;;8.87;4.90;;;;;;;;;;5115574;27;20905;-74
2022/03/03 14:53:17;;;;;;;11.67;6.57;;;;;;;;;;5111119;27;20548;-72
2022/03/03 14:55:48;;;;;;;15.13;6.73;;;;;;;;;;5115383;27;20753;-74
2022/03/03 14:58:26;;;;;;;14.40;7.07;;;;;;;;;;5114231;27;20461;-75
2022/03/03 15:02:53;;;;;;;11.30;6.13;;;;;;;;;;5141322;27;20463;-73
2022/03/03 15:05:25;;;;;;;16.40;7.50;;;;;;;;;;5117726;28;20534;-74
2022/03/03 15:07:53;;;;;;;12.00;5.77;;;;;;;;;;5131069;27;20454;-74
2022/03/03 15:10:22;;;;;;;15.17;6.70;;;;;;;;;;5129384;27;20442;-73
2022/03/03 15:12:57;;;;;;;13.13;6.53;;;;;;;;;;5120903;28;20447;-74
2022/03/03 15:15:27;;;;;;;15.33;6.90;;;;;;;;;;5122717;27;20453;-74
2022/03/03 15:18:04;;;;;;;12.30;6.43;;;;;;;;;;5129989;27;20462;-74
2022/03/03 15:20:35;;;;;;;13.43;8.00;;;;;;;;;;5132621;28;20815;-74
2022/03/03 15:23:03;;;;;;;9.37;6.00;;;;;;;;;;5126476;27;20729;-75
2022/03/03 15:25:39;;;;;;;12.93;6.40;;;;;;;;;;5122422;28;20533;-73
2022/03/03 15:28:10;;;;;;;13.73;6.07;;;;;;;;;;5113640;27;20482;-73